Villa Olga, Puerto Rico
Current Conditions -  °F | °C
As of 4:56 PM on Wednesday 22 Oct 2014 (Local Time) from TJSJ Reporting Station
Scattered Clouds Scattered Clouds  
Wind Chill: 86°   Ceiling: Unl
Heat Index: 94°   Visibility: 10mi
Dew Point: 74°   Wind: 15mph
Humidity: 67%   Direction: 70°ENE
Pressure: 29.89"   Gusts: NA
Location:  18.3754°N, 66.0577°W
Report Text: TJSJ 222056Z 07013KT 10SM SCT040 30/23 A2989 RMK AO2 SLP120 T03000233 55002
Loading
Personal Weather Stations






























Interactive Weather Map
Tropical Storm Tracking
New forecast layout! Learn more

10-Day Weather Forecast

Advertisements
Track Severe Weather on mobile